• Join FlightAware (Why Join?)
  • Login
  • US Flag 
Trick or treat! (Boo!!) 
11:29PM EDT


 

Airport Tracker/Info


-or-


 

Live Flight TrackerFlight Track Log ✈ DAL268 ✈ 22-Oct-2013 ✈ KJFK - LLBG / TLV

Flight Track Log - Related Links

Times and Time Zones

All times are in EDT time to prevent confusion due to time zone crossing. See the DAL268 flight status page for this flight to view local times or setup timezone preferences in your user account.

Time Position Orientation Groundspeed Altitude Reporting Facility
EDT Latitude Longitude Course Direction KTS MPH feet Rate Location/Type
09:29PM 40.6450 -73.7680 180° South 76 87  Level FlightAware
09:30PM 40.6350 -73.7750 208° Southwest 145 167 960 Level FlightAware
09:30PM 40.6160 -73.7890 209° Southwest 173 199 800 1,620 Climbing FlightAware
09:31PM 40.5930 -73.8020 203° Southwest 186 214 1,600 1,500 Climbing FlightAware
09:31PM 40.5860 -73.8030 186° South 194 223 1,800 1,080 Climbing FlightAware
09:31PM 40.5620 -73.7690 133° Southeast 217 250 2,500 1,020 Climbing FlightAware
09:31PM 40.5620 -73.7660 90° East 217 250 2,500 1,320 Level FlightAware
09:32PM 40.5690 -73.7120 80° East 216 249 3,500 1,020 Climbing FlightAware
09:33PM 40.5740 -73.6760 80° East 238 274 3,700 660 Climbing FlightAware
09:33PM 40.5660 -73.6420 107° East 250 288 4,100 1,020 Climbing FlightAware
09:33PM 40.5580 -73.6110 109° East 261 300 4,500 1,020 Climbing FlightAware
09:34PM 40.5500 -73.5810 109° East 277 319 4,800 1,200 Climbing FlightAware
09:34PM 40.5370 -73.5320 109° East 297 342 5,500 1,500 Climbing FlightAware
09:35PM 40.5230 -73.4810 110° East 311 358 6,300 1,800 Climbing FlightAware
09:35PM 40.5080 -73.4260 110° East 321 369 7,300 1,920 Climbing FlightAware
09:36PM 40.4960 -73.3800 109° East 327 376 8,100 2,220 Climbing FlightAware
09:36PM 40.4850 -73.3430 111° Southeast 324 373 9,000 2,160 Climbing FlightAware
09:37PM 40.4813 -73.3278 108° East 328 377 10,200 1,440 Climbing FlightAware ADS-B (KSNC)
09:37PM 40.4471 -73.2012 110° East 364 419 10,700 720 Climbing FlightAware ADS-B (KSNC)
09:38PM 40.4302 -73.1357 109° East 390 449 11,000 960 Climbing FlightAware ADS-B (KSNC)
09:38PM 40.4285 -73.0717 92° East 421 484 11,600 1,620 Climbing FlightAware ADS-B (KSNC)
09:39PM 40.4446 -72.9356 81° East 445 512 13,100 1,620 Climbing FlightAware ADS-B (KSNC)
09:40PM 40.4597 -72.8339 79° East 458 527 14,100 1,680 Climbing FlightAware ADS-B (KSNC)
09:40PM 40.4750 -72.7253 79° East 472 543 15,300 1,740 Climbing FlightAware ADS-B (KSNC)
09:41PM 40.4877 -72.6342 80° East 480 552 16,200 1,680 Climbing FlightAware ADS-B (KSNC)
09:41PM 40.5018 -72.5297 80° East 491 565 17,300 1,620 Climbing FlightAware ADS-B (KSNC)
09:42PM 40.5146 -72.4349 80° East 500 575 18,100 1,740 Climbing FlightAware ADS-B (KSNC)
09:42PM 40.5079 -72.4852 260° West 503 579 19,100 1,560 Climbing FlightAware ADS-B (KSNC)
09:43PM 40.5420 -72.2290 80° East 512 589 20,000 1,380 Climbing FlightAware
09:44PM 40.5660 -72.0510 80° East 527 606 21,300 1,200 Climbing FlightAware
09:45PM 40.5880 -71.8810 80° East 547 629 22,200 960 Climbing FlightAware
09:45PM 40.6040 -71.7610 80° East 558 642 22,800 1,140 Climbing FlightAware
09:46PM 40.6280 -71.5750 80° East 570 656 24,000 1,140 Climbing FlightAware
09:47PM 40.6420 -71.4640 81° East 578 665 24,500 1,020 Climbing FlightAware
09:48PM 40.6660 -71.2710 81° East 591 680 25,500 1,020 Climbing FlightAware
09:48PM 40.6770 -71.1880 80° East 597 687 25,900 900 Climbing FlightAware
09:49PM 40.6900 -71.0800 81° East 603 694 26,300 780 Climbing FlightAware
09:49PM 40.7090 -70.9190 81° East 614 707 26,900 540 Climbing FlightAware
09:50PM 40.7260 -70.7870 80° East 616 709 27,100 120 Climbing FlightAware
09:51PM 40.7430 -70.6380 81° East 616 709 27,100  Level FlightAware
09:51PM 40.7530 -70.5590 80° East 616 709 27,100  Level FlightAware
09:52PM 40.7760 -70.3700 81° East 616 709 27,100  Level FlightAware
09:53PM 40.7850 -70.2940 81° East 616 709 27,100  Level FlightAware
09:53PM 40.7990 -70.1770 81° East 616 709 27,100 2,760 Level FlightAware
09:54PM 40.8283 -69.8808 81° East 650 748 30,700 3,120 Climbing New York Center
09:55PM 40.8458 -69.7389 81° East 656 755 31,400 720 Climbing Boston Center
09:56PM 40.8708 -69.5061 82° East 648 746 32,000 300 Climbing Boston Center
09:57PM 40.8975 -69.2703 81° East 652 750 32,000  Level Boston Center
09:58PM 40.9222 -69.0347 82° East 651 749 32,000  Level Boston Center
09:59PM 40.9456 -68.7994 82° East 651 749 32,000  Level Boston Center
10:00PM 40.9697 -68.5614 82° East 654 753 32,000  Level Boston Center
10:01PM 40.9981 -68.2767 82° East 654 753 32,000  Level Boston Center
10:02PM 41.0269 -67.9783 83° East 655 754 32,000  Level New York Center
10:03PM 41.0483 -67.7436 83° East 655 754 32,000  Level New York Center
10:04PM 41.0714 -67.5033 83° East 655 754 32,000  Level New York Center
10:05PM 41.0919 -67.2683 83° East 655 754 32,000  Level New York Center
10:06PM 41.1097 -67.0306 84° East 655 754 32,000  Level New York Center
10:06PM 41.1167 -67.0000 78° East 647 745 32,000  Level New York Oceanic (ODAPS)
10:06PM 41.1167 -66.9667 78° East 646 743 32,000  Level New York Oceanic (ODAPS)
10:07PM 41.1458 -66.7944 78° East 655 754 32,000  Level New York Center
10:09PM 41.2119 -66.3850 78° East 648 746 32,000  Level Boston Center
10:10PM 41.2472 -66.1511 79° East 648 746 32,000  Level Boston Center
10:11PM 41.2811 -65.9194 79° East 646 743 32,000  Level Boston Center
10:12PM 41.3161 -65.6864 79° East 644 741 32,000  Level Boston Center
10:13PM 41.3550 -65.4375 78° East 643 740 32,000  Level Boston Center
10:15PM 41.4012 -65.1119 79° East  Level FlightAware Approximate
10:22PM 41.5890 -63.7113 79° East  Level FlightAware Approximate
10:23PM 41.6144 -63.5106 80° East  Level FlightAware Approximate
10:24PM 41.6395 -63.3097 80° East  Level FlightAware Approximate
10:25PM 41.6642 -63.1086 81° East  Level FlightAware Approximate
10:26PM 41.6886 -62.9074 81° East  Level FlightAware Approximate
10:27PM 41.7127 -62.7061 81° East  Level FlightAware Approximate
10:27PM 41.7667 -62.2333 81° East 649 747 32,000  Level New York Oceanic (ODAPS)
10:28PM 41.7363 -62.5046 81° East  Level FlightAware Approximate
10:29PM 41.7597 -62.3029 81° East  Level FlightAware Approximate
10:30PM 41.7826 -62.1011 81° East  Level FlightAware Approximate
10:31PM 41.8053 -61.8992 81° East  Level FlightAware Approximate
10:32PM 41.8275 -61.6971 82° East  Level FlightAware Approximate
10:33PM 41.9270 -60.7462 82° East 649 747 32,000  Level FlightAware Transoceanic
10:34PM 41.9519 -60.4977 82° East 649 747 32,000  Level FlightAware Transoceanic
10:35PM 41.9762 -60.2489 83° East 649 747 32,000  Level FlightAware Transoceanic
10:36PM 42.0000 -60.0000 79° East 649 747 32,000  Level FlightAware Transoceanic
10:36PM 42.0000 -60.0000 79° East 627 722 32,000  Level New York Oceanic (ODAPS)
10:37PM 42.0323 -59.7767 79° East 649 747 32,000  Level FlightAware Transoceanic
10:38PM 42.0641 -59.5532 79° East 649 747 32,000  Level FlightAware Transoceanic
10:39PM 42.0956 -59.3295 79° East 649 747 32,000  Level FlightAware Transoceanic
10:40PM 42.1265 -59.1056 80° East 649 747 32,000  Level FlightAware Transoceanic
10:41PM 42.1571 -58.8814 80° East 649 747 32,000  Level FlightAware Transoceanic
10:42PM 42.1913 -58.6257 80° East 627 722 32,000  Level FlightAware Transoceanic
10:43PM 42.2216 -58.3959 80° East 627 722 32,000  Level FlightAware Transoceanic
10:44PM 42.2515 -58.1658 80° East 627 722 32,000  Level FlightAware Transoceanic
10:45PM 42.2808 -57.9355 80° East 627 722 32,000  Level FlightAware Transoceanic
10:46PM 42.3097 -57.7051 80° East 627 722 32,000  Level FlightAware Transoceanic
10:47PM 42.3382 -57.4743 81° East 627 722 32,000 660 Level FlightAware Transoceanic
10:47PM 42.3500 -57.4500 81° East 617 710 33,000  Climbing New York Oceanic (ODAPS)
10:48PM 42.3662 -57.2434 81° East 627 722 32,000 -660 Descending FlightAware Transoceanic
10:49PM 42.3937 -57.0123 81° East 627 722 32,000  Level FlightAware Transoceanic
10:50PM 42.4208 -56.7810 81° East 627 722 32,000  Level FlightAware Transoceanic
10:51PM 42.4474 -56.5495 81° East 627 722 32,000  Level FlightAware Transoceanic
10:52PM 42.4735 -56.3178 81° East 627 722 32,000 480 Level FlightAware Transoceanic
10:53PM 42.5085 -56.0659 82° East 617 710 33,000 480 Climbing FlightAware Transoceanic
10:54PM 42.5333 -55.8345 82° East 617 710 33,000  Level FlightAware Transoceanic
10:55PM 42.5576 -55.6030 82° East 617 710 33,000  Level FlightAware Transoceanic
10:56PM 42.5815 -55.3713 82° East 617 710 33,000  Level FlightAware Transoceanic
10:57PM 42.6049 -55.1394 82° East 617 710 33,000  Level FlightAware Transoceanic
10:58PM 42.6278 -54.9073 82° East 617 710 33,000  Level FlightAware Transoceanic
10:59PM 42.6503 -54.6751 83° East 617 710 33,000  Level FlightAware Transoceanic
11:00PM 42.6722 -54.4427 83° East 617 710 33,000  Level FlightAware Transoceanic
11:01PM 42.6938 -54.2101 83° East 617 710 33,000  Level FlightAware Transoceanic
11:02PM 42.7148 -53.9774 83° East 617 710 33,000  Level FlightAware Transoceanic
11:03PM 42.7354 -53.7445 83° East 617 710 33,000  Level FlightAware Transoceanic
11:04PM 42.7555 -53.5115 83° East 617 710 33,000  Level FlightAware Transoceanic
11:05PM 42.7751 -53.2783 84° East 617 710 33,000  Level FlightAware Transoceanic
11:06PM 42.7943 -53.0450 84° East 617 710 33,000  Level FlightAware Transoceanic
11:07PM 42.8130 -52.8115 84° East 617 710 33,000  Level FlightAware Transoceanic
11:07PM 42.8167 -52.7000 84° East 614 707 33,000  Level New York Oceanic (ODAPS)
11:08PM 42.8312 -52.5779 84° East 617 710 33,000  Level FlightAware Transoceanic
11:09PM 42.8489 -52.3442 84° East 617 710 33,000  Level FlightAware Transoceanic
11:10PM 42.8662 -52.1103 84° East 617 710 33,000  Level FlightAware Transoceanic
11:11PM 42.8829 -51.8763 84° East 617 710 33,000  Level FlightAware Transoceanic
11:12PM 42.8993 -51.6421 85° East 617 710 33,000  Level FlightAware Transoceanic
11:13PM 42.9151 -51.4079 85° East 617 710 33,000  Level FlightAware Transoceanic
11:14PM 42.9313 -51.1269 85° East 614 707 33,000  Level FlightAware Transoceanic
11:15PM 42.9459 -50.9017 85° East 614 707 33,000  Level FlightAware Transoceanic
11:16PM 42.9601 -50.6765 85° East 614 707 33,000  Level FlightAware Transoceanic
11:17PM 42.9739 -50.4511 85° East 614 707 33,000  Level FlightAware Transoceanic
11:18PM 42.9871 -50.2256 85° East 614 707 33,000  Level FlightAware Transoceanic
11:19PM 43.0000 -50.0000 87° East 614 707 33,000  Level FlightAware Transoceanic
11:19PM 43.0000 -50.0000 87° East 603 694 33,000  Level New York Oceanic (ODAPS)
11:20PM 43.0097 -49.7732 87° East 614 707 33,000  Level FlightAware Transoceanic
11:21PM 43.0189 -49.5464 87° East 614 707 33,000  Level FlightAware Transoceanic
11:22PM 43.0277 -49.3195 87° East 614 707 33,000  Level FlightAware Transoceanic
11:23PM 43.0360 -49.0925 87° East 614 707 33,000  Level FlightAware Transoceanic
11:24PM 43.0439 -48.8655 87° East 614 707 33,000  Level FlightAware Transoceanic
11:25PM 43.0513 -48.6384 88° East 614 707 33,000  Level FlightAware Transoceanic
11:26PM 43.0583 -48.4113 88° East 603 694 33,000  Level FlightAware Transoceanic
11:27PM 43.0648 -48.1841 88° East 603 694 33,000  Level FlightAware Transoceanic
11:27PM 43.0667 -48.0333 88° East 597 687 33,000  Level New York Oceanic (ODAPS)
11:28PM 43.0709 -47.9568 88° East 603 694 33,000  Level FlightAware Transoceanic
11:29PM 43.0765 -47.7295 88° East 603 694 33,000  Level FlightAware Transoceanic
11:30PM 43.0817 -47.5022 88° East 603 694 33,000  Level FlightAware Transoceanic
11:31PM 43.0864 -47.2749 88° East 603 694 33,000  Level FlightAware Transoceanic
11:32PM 43.0907 -47.0475 89° East 603 694 33,000  Level FlightAware Transoceanic
11:33PM 43.0946 -46.8200 89° East 603 694 33,000  Level FlightAware Transoceanic
11:34PM 43.0952 -46.6561 89° East 597 687 33,000  Level FlightAware Transoceanic
11:35PM 43.0983 -46.4264 89° East 597 687 33,000  Level FlightAware Transoceanic
11:36PM 43.1010 -46.1968 89° East 597 687 33,000  Level FlightAware Transoceanic
11:37PM 43.1032 -45.9671 89° East 597 687 33,000  Level FlightAware Transoceanic
11:38PM 43.1050 -45.7374 89° East 597 687 33,000  Level FlightAware Transoceanic
11:39PM 43.1063 -45.5077 90° East 597 687 33,000  Level FlightAware Transoceanic
11:40PM 43.1072 -45.2780 90° East 597 687 33,000  Level FlightAware Transoceanic
11:41PM 43.1076 -45.0482 90° East 597 687 33,000  Level FlightAware Transoceanic
11:42PM 43.1075 -44.8185 90° East 597 687 33,000  Level FlightAware Transoceanic
11:43PM 43.1070 -44.5888 90° East 597 687 33,000  Level FlightAware Transoceanic
11:44PM 43.1060 -44.3590 90° East 597 687 33,000  Level FlightAware Transoceanic
11:45PM 43.1045 -44.1293 91° East 597 687 33,000  Level FlightAware Transoceanic
11:46PM 43.1026 -43.8996 91° East 597 687 33,000  Level FlightAware Transoceanic
11:47PM 43.1003 -43.6699 91° East 597 687 33,000  Level FlightAware Transoceanic
11:48PM 43.0974 -43.4403 91° East 597 687 33,000  Level FlightAware Transoceanic
11:48PM 43.1000 -43.4167 91° East 601 692 33,000  Level New York Oceanic (ODAPS)
11:49PM 43.0941 -43.2107 91° East 597 687 33,000  Level FlightAware Transoceanic
11:50PM 43.0904 -42.9810 91° East 597 687 33,000  Level FlightAware Transoceanic
11:51PM 43.0862 -42.7514 92° East 597 687 33,000  Level FlightAware Transoceanic
11:52PM 43.0815 -42.5219 92° East 597 687 33,000  Level FlightAware Transoceanic
11:53PM 43.0764 -42.2924 92° East 597 687 33,000  Level FlightAware Transoceanic
11:54PM 43.0722 -42.0487 92° East 601 692 33,000  Level FlightAware Transoceanic
11:55PM 43.0660 -41.8209 92° East 601 692 33,000  Level FlightAware Transoceanic
11:56PM 43.0593 -41.5930 92° East 601 692 33,000  Level FlightAware Transoceanic
11:57PM 43.0522 -41.3653 93° East 601 692 33,000  Level FlightAware Transoceanic
11:58PM 43.0446 -41.1376 93° East 601 692 33,000  Level FlightAware Transoceanic
11:59PM 43.0366 -40.9099 93° East 601 692 33,000  Level FlightAware Transoceanic
12:00AM 43.0281 -40.6824 93° East 601 692 33,000  Level FlightAware Transoceanic
12:01AM 43.0192 -40.4548 93° East 601 692 33,000  Level FlightAware Transoceanic
12:02AM 43.0098 -40.2274 93° East 601 692 33,000  Level FlightAware Transoceanic
12:03AM 43.0000 -40.0000 79° East 601 692 33,000  Level FlightAware Transoceanic
12:04AM 43.0309 -39.7866 79° East 601 692 33,000  Level FlightAware Transoceanic
12:05AM 43.0614 -39.5729 79° East 601 692 33,000  Level FlightAware Transoceanic
12:06AM 43.0915 -39.3591 79° East 601 692 33,000  Level FlightAware Transoceanic
12:07AM 43.1213 -39.1450 79° East 601 692 33,000  Level FlightAware Transoceanic
12:08AM 43.1506 -38.9308 79° East 601 692 33,000  Level FlightAware Transoceanic
12:09AM 43.1795 -38.7163 80° East 601 692 33,000  Level FlightAware Transoceanic
12:10AM 43.2080 -38.5016 80° East 601 692 33,000  Level FlightAware Transoceanic
12:11AM 43.2361 -38.2868 80° East 601 692 33,000  Level FlightAware Transoceanic
12:12AM 43.2638 -38.0717 80° East 601 692 33,000  Level FlightAware Transoceanic
12:13AM 43.2911 -37.8564 80° East 601 692 33,000  Level FlightAware Transoceanic
12:14AM 43.3180 -37.6410 80° East 601 692 33,000  Level FlightAware Transoceanic
12:15AM 43.3445 -37.4253 80° East 601 692 33,000  Level FlightAware Transoceanic
12:16AM 43.3706 -37.2095 81° East 601 692 33,000  Level FlightAware Transoceanic
12:17AM 43.3963 -36.9935 81° East 601 692 33,000  Level FlightAware Transoceanic
12:18AM 43.4216 -36.7773 81° East 601 692 33,000  Level FlightAware Transoceanic
12:19AM 43.4464 -36.5609 81° East 601 692 33,000  Level FlightAware Transoceanic
12:20AM 43.4709 -36.3444 81° East 601 692 33,000  Level FlightAware Transoceanic
12:21AM 43.4950 -36.1277 81° East 601 692 33,000  Level FlightAware Transoceanic
12:22AM 43.5186 -35.9108 82° East 601 692 33,000  Level FlightAware Transoceanic
12:23AM 43.5418 -35.6937 82° East 601 692 33,000  Level FlightAware Transoceanic
12:24AM 43.5647 -35.4765 82° East 601 692 33,000  Level FlightAware Transoceanic
12:25AM 43.5871 -35.2591 82° East 601 692 33,000  Level FlightAware Transoceanic
12:26AM 43.6091 -35.0415 82° East 601 692 33,000  Level FlightAware Transoceanic
12:27AM 43.6307 -34.8238 82° East 601 692 33,000  Level FlightAware Transoceanic
12:28AM 43.6518 -34.6059 82° East 601 692 33,000  Level FlightAware Transoceanic
12:29AM 43.6726 -34.3879 83° East 601 692 33,000  Level FlightAware Transoceanic
12:30AM 43.6929 -34.1698 83° East 601 692 33,000  Level FlightAware Transoceanic
12:31AM 43.7129 -33.9514 83° East 601 692 33,000  Level FlightAware Transoceanic
12:32AM 43.7324 -33.7330 83° East 601 692 33,000  Level FlightAware Transoceanic
12:33AM 43.7515 -33.5144 83° East 601 692 33,000  Level FlightAware Transoceanic
12:34AM 43.7702 -33.2956 83° East 601 692 33,000  Level FlightAware Transoceanic
12:35AM 43.7884 -33.0768 83° East 601 692 33,000  Level FlightAware Transoceanic
12:36AM 43.8063 -32.8578 84° East 601 692 33,000  Level FlightAware Transoceanic
12:37AM 43.8237 -32.6386 84° East 601 692 33,000  Level FlightAware Transoceanic
12:38AM 43.8407 -32.4194 84° East 601 692 33,000  Level FlightAware Transoceanic
12:39AM 43.8573 -32.2000 84° East 601 692 33,000  Level FlightAware Transoceanic
12:40AM 43.8735 -31.9805 84° East 601 692 33,000  Level FlightAware Transoceanic
12:41AM 43.8892 -31.7609 84° East 601 692 33,000  Level FlightAware Transoceanic
12:42AM 43.9045 -31.5411 85° East 601 692 33,000  Level FlightAware Transoceanic
12:43AM 43.9194 -31.3213 85° East 601 692 33,000  Level FlightAware Transoceanic
12:44AM 43.9339 -31.1013 85° East 601 692 33,000  Level FlightAware Transoceanic
12:45AM 43.9480 -30.8813 85° East 601 692 33,000  Level FlightAware Transoceanic
12:46AM 43.9616 -30.6611 85° East 601 692 33,000  Level FlightAware Transoceanic
12:47AM 43.9748 -30.4408 85° East 601 692 33,000  Level FlightAware Transoceanic
12:48AM 43.9876 -30.2204 85° East 601 692 33,000  Level FlightAware Transoceanic
12:49AM 44.0132 -30.0137 80° East  Level Estimated
12:50AM 44.0385 -29.8067 80° East  Level Estimated
12:51AM 44.0633 -29.5996 80° East  Level Estimated
12:52AM 44.0878 -29.3923 81° East  Level Estimated
12:53AM 44.1119 -29.1849 81° East  Level Estimated
12:54AM 44.1356 -28.9772 81° East  Level Estimated
12:55AM 44.1590 -28.7695 81° East  Level Estimated
12:56AM 44.1820 -28.5615 81° East  Level Estimated
12:57AM 44.2046 -28.3534 81° East  Level Estimated
12:58AM 44.2268 -28.1451 81° East  Level Estimated
12:59AM 44.2486 -27.9367 82° East  Level Estimated
01:00AM 44.2701 -27.7281 82° East  Level Estimated
01:01AM 44.2912 -27.5194 82° East  Level Estimated
01:02AM 44.3119 -27.3105 82° East  Level Estimated
01:03AM 44.3322 -27.1015 82° East  Level Estimated
01:04AM 44.3521 -26.8923 82° East  Level Estimated
01:05AM 44.3717 -26.6830 82° East  Level Estimated
01:06AM 44.3909 -26.4735 83° East  Level Estimated
01:07AM 44.4097 -26.2639 83° East  Level Estimated
01:08AM 44.4281 -26.0542 83° East  Level Estimated
01:09AM 44.4461 -25.8444 83° East  Level Estimated
01:10AM 44.4637 -25.6344 83° East  Level Estimated
01:11AM 44.4810 -25.4243 83° East  Level Estimated
01:12AM 44.4979 -25.2141 84° East  Level Estimated
01:13AM 44.5144 -25.0037 84° East  Level Estimated
01:14AM 44.5305 -24.7932 84° East  Level Estimated
01:15AM 44.5462 -24.5826 84° East  Level Estimated
01:16AM 44.5615 -24.3720 84° East  Level Estimated
01:17AM 44.5765 -24.1612 84° East  Level Estimated
01:18AM 44.5910 -23.9503 84° East  Level Estimated
01:19AM 44.6052 -23.7392 85° East  Level Estimated
01:20AM 44.6189 -23.5281 85° East  Level Estimated
01:21AM 44.6323 -23.3169 85° East  Level Estimated
01:22AM 44.6453 -23.1056 85° East  Level Estimated
01:23AM 44.6579 -22.8942 85° East  Level Estimated
01:24AM 44.6701 -22.6827 85° East  Level Estimated
01:25AM 44.6820 -22.4711 85° East  Level Estimated
01:26AM 44.6934 -22.2594 86° East  Level Estimated
01:27AM 44.7044 -22.0477 86° East  Level Estimated
01:28AM 44.7151 -21.8358 86° East  Level Estimated
01:29AM 44.7253 -21.6239 86° East  Level Estimated
01:30AM 44.7352 -21.4120 86° East  Level Estimated
01:31AM 44.7447 -21.1999 86° East  Level Estimated
01:32AM 44.7538 -20.9878 86° East  Level Estimated
01:33AM 44.7625 -20.7756 87° East  Level Estimated
01:34AM 44.7708 -20.5634 87° East  Level Estimated
01:35AM 44.7787 -20.3510 87° East  Level Estimated
01:36AM 44.7862 -20.1387 87° East  Level Estimated
01:37AM 44.7933 -19.9263 87° East  Level Estimated
01:38AM 44.8000 -19.7138 87° East  Level Estimated
01:39AM 44.8063 -19.5013 88° East  Level Estimated
01:40AM 44.8123 -19.2887 88° East  Level Estimated
01:41AM 44.8178 -19.0761 88° East  Level Estimated
01:42AM 44.8230 -18.8635 88° East  Level Estimated
01:43AM 44.8277 -18.6508 88° East  Level Estimated
01:44AM 44.8321 -18.4381 88° East  Level Estimated
01:45AM 44.8360 -18.2253 88° East  Level Estimated
01:46AM 44.8396 -18.0126 89° East  Level Estimated
01:47AM 44.8428 -17.7998 89° East  Level Estimated
01:48AM 44.8456 -17.5870 89° East  Level Estimated
01:49AM 44.8479 -17.3741 89° East  Level Estimated
01:50AM 44.8499 -17.1613 89° East  Level Estimated
01:51AM 44.8515 -16.9484 89° East  Level Estimated
01:52AM 44.8527 -16.7355 89° East  Level Estimated
01:53AM 44.8535 -16.5226 90° East  Level Estimated
01:54AM 44.8539 -16.3097 90° East  Level Estimated
01:55AM 44.8539 -16.0969 90° East  Level Estimated
01:56AM 44.8535 -15.8840 90° East  Level Estimated
01:57AM 44.8528 -15.6711 90° East  Level Estimated
01:58AM 44.8516 -15.4582 90° East  Level Estimated
01:59AM 44.8500 -15.2453 91° East  Level Estimated
02:00AM 44.8480 -15.0325 91° East  Level Estimated
02:01AM 44.8457 -14.8196 91° East  Level Estimated
02:02AM 44.8429 -14.6068 91° East  Level Estimated
02:03AM 44.8398 -14.3940 91° East  Level Estimated
02:04AM 44.8362 -14.1813 91° East  Level Estimated
02:05AM 44.8323 -13.9685 91° East  Level Estimated
02:06AM 44.8279 -13.7558 92° East  Level Estimated
02:07AM 44.8232 -13.5431 92° East  Level Estimated
02:08AM 44.8181 -13.3305 92° East  Level Estimated
02:09AM 44.8126 -13.1179 92° East  Level Estimated
02:10AM 44.8066 -12.9053 92° East  Level Estimated
02:11AM 44.8003 -12.6928 92° East  Level Estimated
02:12AM 44.7936 -12.4803 92° East  Level Estimated
02:13AM 44.7865 -12.2679 93° East  Level Estimated
02:14AM 44.7790 -12.0555 93° East  Level Estimated
02:15AM 44.7711 -11.8432 93° East  Level Estimated
02:15AM 43.4221 -12.2757 93° East 553 636 35,100  Level FlightAware ADS-B
02:16AM 44.7629 -11.6310 93° East  Level Estimated
02:17AM 44.7542 -11.4188 93° East  Level Estimated
02:17AM 43.3280 -11.4553 99° East 559 643 35,100  Level FlightAware ADS-B
02:18AM 43.3071 -11.2801 99° East 560 644 35,100  Level FlightAware ADS-B
02:19AM 43.2937 -11.1680 99° East 560 644 35,100  Level FlightAware ADS-B
02:19AM 43.2811 -11.0630 99° East 561 646 35,100  Level FlightAware ADS-B
02:20AM 43.2645 -10.9299 100° East 562 647 35,100  Level FlightAware ADS-B
02:21AM 43.2463 -10.7824 100° East 562 647 35,100  Level FlightAware ADS-B
02:21AM 43.2323 -10.6702 100° East 562 647 35,100 360 Level FlightAware ADS-B
02:22AM 43.2190 -10.5650 100° East 564 649 35,500 900 Climbing FlightAware ADS-B
02:22AM 43.2062 -10.4627 100° East 565 650 36,000 480 Climbing FlightAware ADS-B
02:23AM 43.1877 -10.3182 100° East 567 652 36,100 60 Climbing FlightAware ADS-B
02:23AM 43.1738 -10.2123 100° East 566 651 36,100  Level FlightAware ADS-B
02:24AM 43.1556 -10.0717 100° East 566 651 36,100  Level FlightAware ADS-B
02:24AM 43.1417 -9.9659 100° East 566 651 36,100  Level FlightAware ADS-B
02:25AM 43.1229 -9.8254 100° East 566 651 36,100  Level FlightAware ADS-B
02:26AM 43.1087 -9.7196 100° East 567 652 36,100  Level FlightAware ADS-B
02:26AM 43.0898 -9.5788 100° East 568 654 36,100  Level FlightAware ADS-B
02:27AM 43.0753 -9.4733 101° East 568 654 36,100  Level FlightAware ADS-B
02:27AM 43.0561 -9.3325 101° East 568 654 36,100  Level FlightAware ADS-B
02:28AM 43.0409 -9.2235 101° East 567 652 36,100  Level FlightAware ADS-B
02:29AM 43.0221 -9.0899 101° East 567 652 36,100  Level FlightAware ADS-B
02:29AM 43.0024 -8.9494 101° East 566 651 36,100  Level FlightAware ADS-B
02:30AM 42.9869 -8.8409 101° East 565 650 36,100  Level FlightAware ADS-B
02:30AM 42.9721 -8.7361 101° East 565 650 36,100  Level FlightAware ADS-B
02:31AM 42.9518 -8.5961 101° East 566 651 36,100  Level FlightAware ADS-B
02:31AM 42.9369 -8.4910 101° East 566 651 36,100  Level FlightAware ADS-B
02:32AM 42.9238 -8.3819 99° East 567 652 36,100  Level FlightAware ADS-B
02:33AM 42.9130 -8.2433 96° East 568 654 36,100  Level FlightAware ADS-B
02:33AM 42.9080 -8.1473 94° East 566 651 36,100  Level FlightAware ADS-B
02:34AM 42.9017 -8.0298 94° East 567 652 36,100  Level FlightAware ADS-B
02:34AM 42.8965 -7.9375 94° East 566 651 36,100  Level FlightAware ADS-B
02:35AM 42.8882 -7.7993 95° East 564 649 36,100  Level FlightAware ADS-B
02:35AM 42.8810 -7.6899 95° East 563 648 36,100  Level FlightAware ADS-B
02:36AM 42.8738 -7.5878 95° East 561 646 36,100  Level FlightAware ADS-B
02:36AM 42.8665 -7.4822 95° East 562 647 36,100  Level FlightAware ADS-B
02:37AM 42.8587 -7.3734 96° East 561 646 36,100  Level FlightAware ADS-B
02:37AM 42.8486 -7.2334 96° East 559 643 36,100  Level FlightAware ADS-B
02:38AM 42.8409 -7.1286 96° East 559 643 36,100  Level FlightAware ADS-B
02:38AM 42.8335 -7.0272 96° East 560 644 36,100  Level FlightAware ADS-B
02:39AM 42.8257 -6.9222 96° East 559 643 36,100  Level FlightAware ADS-B
02:39AM 42.8152 -6.7826 96° East 558 642 36,100  Level FlightAware ADS-B
02:40AM 42.8072 -6.6779 96° East 558 642 36,100  Level FlightAware ADS-B
02:40AM 42.7993 -6.5733 96° East 558 642 36,100  Level FlightAware ADS-B
02:42AM 42.7820 -6.3570 96° East 557 641 36,100  Level FlightAware
02:43AM 42.7640 -6.1310 96° East 558 642 36,100  Level FlightAware
02:44AM 42.7460 -5.9010 96° East 559 643 36,100  Level FlightAware
02:44AM 42.7360 -5.7820 96° East 561 646 36,100  Level FlightAware
02:45AM 42.7270 -5.6740 96° East 562 647 36,100  Level FlightAware
02:45AM 42.7160 -5.5510 97° East 562 647 36,100  Level FlightAware
02:46AM 42.7070 -5.4500 97° East 561 646 36,100  Level FlightAware
02:46AM 42.6960 -5.3240 97° East 560 644 36,100  Level FlightAware
02:47AM 42.6820 -5.1710 97° East 560 644 36,100  Level FlightAware
02:48AM 42.6700 -5.0310 97° East 560 644 36,100  Level FlightAware
02:48AM 42.6610 -4.9300 97° East 560 644 36,100  Level FlightAware
02:49AM 42.6410 -4.7170 97° East 559 643 36,100  Level FlightAware
02:50AM 42.6280 -4.5790 97° East 558 642 36,100  Level FlightAware
02:51AM 42.6150 -4.4390 97° East 559 643 36,100  Level FlightAware
02:51AM 42.6050 -4.3420 98° East 557 641 36,100  Level FlightAware
02:52AM 42.5950 -4.2380 97° East 558 642 36,100  Level FlightAware
02:52AM 42.5830 -4.1200 98° East 560 644 36,100  Level FlightAware
02:53AM 42.5720 -4.0060 97° East 561 646 36,100  Level FlightAware
02:54AM 42.5490 -3.7830 98° East 561 646 36,100  Level FlightAware
02:54AM 42.5380 -3.6720 98° East 561 646 36,100  Level FlightAware
02:55AM 42.5140 -3.4390 98° East 561 646 36,100  Level FlightAware
02:56AM 42.5020 -3.3280 98° East 559 643 36,100  Level FlightAware
02:57AM 42.4900 -3.2130 98° East 558 642 36,100  Level FlightAware
02:57AM 42.4750 -3.0790 99° East 555 639 36,100  Level FlightAware
02:58AM 42.4590 -2.9380 99° East 552 635 36,100  Level FlightAware
02:59AM 42.4390 -2.8150 102° East 547 629 36,100  Level FlightAware
02:59AM 42.4140 -2.6870 105° East 544 626 36,100  Level FlightAware
03:00AM 42.3920 -2.5820 106° East 544 626 36,100  Level FlightAware
03:00AM 42.3610 -2.4310 105° East 542 624 36,100  Level FlightAware
03:02AM 42.3120 -2.1980 106° East 539 620 36,100  Level FlightAware
03:02AM 42.2820 -2.0590 106° East 538 619 36,100  Level FlightAware
03:03AM 42.2510 -1.9140 106° East 538 619 36,100  Level FlightAware
03:04AM 42.2140 -1.7430 106° East 537 618 36,100  Level FlightAware
03:05AM 42.1930 -1.6440 106° East 539 620 36,100  Level FlightAware
03:05AM 42.1670 -1.5210 106° East 538 619 36,100  Level FlightAware
03:06AM 42.1370 -1.3900 107° East 536 617 36,100  Level FlightAware
03:07AM 42.1080 -1.2530 106° East 536 617 36,100  Level FlightAware
03:07AM 42.0850 -1.1500 107° East 536 617 36,100  Level FlightAware
03:08AM 42.0620 -1.0450 106° East 537 618 36,100  Level FlightAware
03:08AM 42.0370 -0.9330 107° East 538 619 36,100  Level FlightAware
03:09AM 42.0090 -0.8080 107° East 540 621 36,100  Level FlightAware
03:10AM 41.9800 -0.6830 107° East 542 624 36,100  Level FlightAware
03:10AM 41.9560 -0.5800 107° East 543 625 36,100  Level FlightAware
03:10AM 41.9410 -0.5090 106° East 544 626 36,100  Level FlightAware
03:11AM 41.8950 -0.3110 107° East 546 628 36,100  Level FlightAware
03:12AM 41.8650 -0.1820 107° East 549 632 36,100  Level FlightAware
03:13AM 41.8430 -0.0840 107° East 551 634 36,100  Level FlightAware
03:13AM 41.8180 0.0200 108° East 553 636 36,100  Level FlightAware
03:14AM 41.7900 0.1380 108° East 554 638 36,100  Level FlightAware
03:14AM 41.7670 0.2390 107° East 553 636 36,100  Level FlightAware
03:15AM 41.7430 0.3410 107° East 553 636 36,100  Level FlightAware
03:15AM 41.7160 0.4540 108° East 548 631 36,100  Level FlightAware
03:15AM 41.7106 0.4765 108° East 548 631 36,100  Level FlightAware ADS-B
03:16AM 41.6879 0.5698 108° East 546 628 36,100  Level FlightAware ADS-B
03:17AM 41.6574 0.6980 108° East 542 624 36,100  Level FlightAware ADS-B
03:17AM 41.6330 0.7922 109° East 538 619 36,100  Level FlightAware ADS-B
03:18AM 41.6079 0.8861 110° East 537 618 36,100  Level FlightAware ADS-B
03:18AM 41.5825 0.9825 109° East 534 615 36,100  Level FlightAware ADS-B
03:19AM 41.5505 1.1030 109° East 532 612 36,100  Level FlightAware ADS-B
03:19AM 41.5260 1.1998 109° East 535 616 36,100  Level FlightAware ADS-B
03:20AM 41.4986 1.3226 107° East 534 615 36,100  Level FlightAware ADS-B
03:20AM 41.4771 1.4170 107° East 533 613 36,100  Level FlightAware ADS-B
03:21AM 41.4549 1.5144 107° East 533 613 36,100  Level FlightAware ADS-B
03:21AM 41.4331 1.6082 107° East 533 613 36,100  Level FlightAware ADS-B
03:22AM 41.4032 1.7333 108° East 533 613 36,100  Level FlightAware ADS-B
03:23AM 41.3795 1.8261 109° East 533 613 36,100  Level FlightAware ADS-B
03:23AM 41.3484 1.9471 109° East 534 615 36,100  Level FlightAware ADS-B
03:24AM 41.3241 2.0401 109° East 534 615 36,100  Level FlightAware ADS-B
03:24AM 41.2968 2.1635 106° East 541 623 36,100  Level FlightAware ADS-B
03:25AM 41.2720 2.3160 102° East 541 623 36,100  Level FlightAware
03:26AM 41.2430 2.4950 102° East 540 621 36,100  Level FlightAware
03:27AM 41.2190 2.6440 102° East 541 623 36,100  Level FlightAware
03:28AM 41.1960 2.7760 103° East 542 624 36,100  Level FlightAware
03:28AM 41.1760 2.8970 102° East 542 624 36,100  Level FlightAware
03:29AM 41.1560 3.0100 103° East 541 623 36,100  Level FlightAware
03:29AM 41.1380 3.1130 103° East 540 621 36,100  Level FlightAware
03:30AM 41.1160 3.2390 103° East 541 623 36,100  Level FlightAware
03:31AM 41.0950 3.3620 103° East 542 624 36,100  Level FlightAware
03:31AM 41.0710 3.4950 103° East 545 627 36,100  Level FlightAware
03:32AM 41.0500 3.6120 103° East 546 628 36,100  Level FlightAware
03:33AM 41.0270 3.7420 103° East 547 629 36,100  Level FlightAware
03:33AM 41.0050 3.8660 103° East 547 629 36,100  Level FlightAware
03:34AM 40.9850 3.9730 104° East 545 627 36,100  Level FlightAware
03:35AM 40.9570 4.1290 103° East 546 628 36,100  Level FlightAware
03:35AM 40.9360 4.2390 104° East 545 627 36,100  Level FlightAware
03:36AM 40.9190 4.3360 103° East 545 627 36,100  Level FlightAware
03:36AM 40.8970 4.4520 104° East 544 626 36,100  Level FlightAware
03:37AM 40.8720 4.5870 104° East 544 626 36,100  Level FlightAware
03:38AM 40.8530 4.7110 101° East 544 626 36,100  Level FlightAware
03:38AM 40.8430 4.8170 97° East 546 628 36,100  Level FlightAware
03:38AM 40.8360 4.8890 97° East 546 628 36,100  Level FlightAware
03:39AM 40.8220 5.0450 97° East 547 629 36,100  Level FlightAware
03:40AM 40.8080 5.1870 97° East 547 629 36,100  Level FlightAware
03:41AM 40.7950 5.3220 97° East 546 628 36,100  Level FlightAware
03:41AM 40.7820 5.4580 97° East 546 628 36,100  Level FlightAware
03:42AM 40.7720 5.5600 97° East 546 628 36,100  Level FlightAware
03:42AM 40.7600 5.6790 98° East 547 629 36,100  Level FlightAware
03:43AM 40.7410 5.8670 98° East 547 629 36,100  Level FlightAware
03:44AM 40.7270 6.0000 98° East 548 631 36,100  Level FlightAware
03:45AM 40.7150 6.1190 98° East 549 632 36,100  Level FlightAware
03:45AM 40.7010 6.2480 98° East 550 633 36,100  Level FlightAware
03:46AM 40.6850 6.4000 98° East 550 633 36,100 360 Level FlightAware
03:47AM 40.6680 6.5560 98° East 546 628 36,700 660 Climbing FlightAware
03:47AM 40.6550 6.6750 98° East 546 628 37,100 240 Climbing FlightAware
03:48AM 40.6370 6.8390 98° East 543 625 37,100  Level FlightAware
03:49AM 40.6210 6.9860 98° East 541 623 37,100  Level FlightAware
03:50AM 40.6040 7.1320 99° East 538 619 37,100  Level FlightAware
03:50AM 40.5900 7.2610 98° East 536 617 37,100  Level FlightAware
03:52AM 40.5650 7.4700 99° East 534 615 37,100  Level FlightAware
03:52AM 40.5500 7.5980 99° East 533 613 37,100  Level FlightAware
03:53AM 40.5340 7.7260 99° East 532 612 37,100  Level FlightAware
03:53AM 40.5210 7.8370 99° East 531 611 37,100  Level FlightAware
03:54AM 40.5070 7.9490 99° East 530 610 37,100  Level FlightAware
03:55AM 40.4900 8.0910 99° East 528 608 37,100  Level FlightAware
03:55AM 40.4800 8.1700 99° East 527 606 37,100  Level FlightAware
03:56AM 40.4640 8.2970 99° East 526 605 37,100  Level FlightAware
03:56AM 40.4520 8.3910 99° East 528 608 37,100  Level FlightAware
03:57AM 40.4380 8.4980 100° East 527 606 37,100  Level FlightAware
03:58AM 40.4100 8.7200 99° East 529 609 37,100  Level FlightAware
03:59AM 40.3850 8.9100 100° East 529 609 37,100  Level FlightAware
04:00AM 40.3720 9.0080 100° East 530 610 37,100  Level FlightAware
04:00AM 40.3570 9.1190 100° East 530 610 37,100  Level FlightAware
04:01AM 40.3360 9.2780 100° East 530 610 37,100  Level FlightAware
04:02AM 40.3230 9.3730 100° East 530 610 37,100  Level FlightAware
04:02AM 40.3060 9.5000 100° East 530 610 37,100  Level FlightAware
04:03AM 40.2770 9.7060 100° East 532 612 37,100  Level FlightAware
04:04AM 40.2480 9.9120 100° East 533 613 37,100  Level FlightAware
04:05AM 40.2330 10.0230 100° East 533 613 37,100  Level FlightAware
04:06AM 40.2150 10.1490 101° East 532 612 37,100  Level FlightAware
04:06AM 40.1960 10.2750 101° East 531 611 37,100  Level FlightAware
04:07AM 40.1740 10.4330 100° East 529 609 37,100  Level FlightAware
04:08AM 40.1580 10.5420 101° East 527 606 37,100  Level FlightAware
04:08AM 40.1390 10.6670 101° East 526 605 37,100  Level FlightAware
04:09AM 40.1230 10.7790 101° East 524 603 37,100  Level FlightAware
04:10AM 40.1050 10.9000 101° East 522 601 37,100  Level FlightAware
04:10AM 40.0890 11.0080 101° East 521 600 37,100  Level FlightAware
04:11AM 40.0790 11.0730 101° East 520 598 37,100  Level FlightAware
04:11AM 40.0550 11.2260 102° East 518 596 37,100  Level FlightAware
04:12AM 40.0370 11.3460 101° East 518 596 37,100  Level FlightAware
04:13AM 40.0180 11.4710 101° East 516 594 37,100  Level FlightAware
04:13AM 39.9960 11.6080 102° East 515 593 37,100  Level FlightAware
04:14AM 39.9820 11.6960 102° East 515 593 37,100  Level FlightAware
04:15AM 39.9650 11.8080 101° East 514 592 37,100  Level FlightAware
04:15AM 39.9420 11.9470 102° East 512 589 37,100  Level FlightAware
04:16AM 39.9270 12.0410 102° East 510 587 37,100  Level FlightAware
04:16AM 39.9120 12.1370 101° East 510 587 37,100  Level FlightAware
04:17AM 39.8930 12.2570 102° East 508 585 37,100  Level FlightAware
04:18AM 39.8770 12.3520 102° East 506 582 37,100  Level FlightAware
04:18AM 39.8590 12.4600 102° East 505 581 37,100  Level FlightAware
04:19AM 39.8400 12.5720 102° East 504 580 37,100  Level FlightAware
04:20AM 39.8080 12.7670 102° East 503 579 37,100  Level FlightAware
04:21AM 39.7860 12.9000 102° East 502 578 37,100  Level FlightAware
04:21AM 39.7660 13.0180 102° East 502 578 37,100  Level FlightAware
04:22AM 39.7520 13.1000 102° East 501 577 37,100  Level FlightAware
04:22AM 39.7340 13.2030 103° East 501 577 37,100  Level FlightAware
04:23AM 39.7120 13.3320 102° East 501 577 37,100  Level FlightAware
04:24AM 39.6900 13.4610 102° East 501 577 37,100  Level FlightAware
04:24AM 39.6710 13.5670 103° East 500 575 37,100  Level FlightAware
04:25AM 39.6530 13.6720 103° East 500 575 37,100  Level FlightAware
04:26AM 39.6360 13.7650 103° East 499 574 37,100  Level FlightAware
04:26AM 39.6180 13.8700 103° East 499 574 37,100  Level FlightAware
04:27AM 39.5980 13.9780 103° East 498 573 37,100  Level FlightAware
04:28AM 39.5760 14.1020 103° East 495 570 37,100  Level FlightAware
04:28AM 39.5570 14.2060 103° East 493 567 37,100  Level FlightAware
04:29AM 39.5360 14.3200 103° East 490 564 37,100  Level FlightAware
04:29AM 39.5180 14.4230 103° East 489 563 37,100  Level FlightAware
04:30AM 39.5000 14.5170 104° East 491 565 37,100  Level FlightAware
04:31AM 39.4780 14.6380 103° East 492 566 37,100  Level FlightAware
04:31AM 39.4590 14.7410 103° East 493 567 37,100  Level FlightAware
04:32AM 39.4410 14.8410 103° East 493 567 37,100  Level FlightAware
04:32AM 39.4240 14.9270 104° East 493 567 37,100  Level FlightAware
04:33AM 39.4040 15.0330 104° East 494 568 37,100  Level FlightAware
04:34AM 39.3830 15.1450 104° East 494 568 37,100  Level FlightAware
04:34AM 39.3560 15.2880 104° East 494 568 37,100  Level FlightAware
04:35AM 39.3210 15.4680 104° East 494 568 37,100  Level FlightAware
04:36AM 39.2960 15.5940 104° East 494 568 37,100  Level FlightAware
04:37AM 39.2660 15.7480 104° East 495 570 37,100  Level FlightAware
04:38AM 39.2490 15.8370 104° East 495 570 37,100  Level FlightAware
04:38AM 39.2230 15.9660 105° East 497 572 37,100  Level FlightAware
04:39AM 39.2000 16.0840 104° East 497 572 37,100  Level FlightAware
04:40AM 39.1780 16.1960 104° East 496 571 37,100  Level FlightAware
04:40AM 39.1520 16.3210 105° East 495 570 37,100  Level FlightAware
04:41AM 39.1280 16.4440 104° East 494 568 37,100  Level FlightAware
04:42AM 39.1020 16.5690 105° East 496 571 37,100  Level FlightAware
04:43AM 39.0730 16.7120 105° East 495 570 37,100  Level FlightAware
04:43AM 39.0520 16.7990 107° East 495 570 37,100  Level FlightAware
04:44AM 39.0330 16.8800 107° East 495 570 37,100  Level FlightAware
04:44AM 39.0060 16.9930 107° East 495 570 37,100  Level FlightAware
04:45AM 38.9820 17.0940 107° East 495 570 37,100  Level FlightAware
04:46AM 38.9590 17.1930 107° East 495 570 37,100  Level FlightAware
04:46AM 38.9310 17.3110 107° East 494 568 37,100  Level FlightAware
04:47AM 38.9070 17.4150 106° East 494 568 37,100  Level FlightAware
04:48AM 38.8780 17.5380 107° East 493 567 37,100  Level FlightAware
04:48AM 38.8460 17.6690 107° East 492 566 37,100  Level FlightAware
04:49AM 38.8250 17.7580 107° East 491 565 37,100  Level FlightAware
04:50AM 38.8000 17.8610 107° East 491 565 37,100  Level FlightAware
04:50AM 38.7740 17.9690 107° East 491 565 37,100  Level FlightAware
04:51AM 38.7450 18.0890 107° East 491 565 37,100  Level FlightAware
04:52AM 38.7210 18.1890 107° East 491 565 37,100  Level FlightAware
04:52AM 38.6960 18.2880 108° East 491 565 37,100  Level FlightAware
04:53AM 38.6630 18.4220 107° East 491 565 37,100  Level FlightAware
04:53AM 38.6410 18.5100 108° East 491 565 37,100  Level FlightAware
04:54AM 38.6160 18.6130 107° East 493 567 37,100  Level FlightAware
04:55AM 38.5880 18.7240 108° East 494 568 37,100  Level FlightAware
04:55AM 38.5570 18.8460 108° East 495 570 37,100  Level FlightAware
04:56AM 38.5370 18.9240 108° East 495 570 37,100  Level FlightAware
04:57AM 38.5180 19.0040 107° East 494 568 37,100  Level FlightAware
04:57AM 38.4980 19.0900 107° East 494 568 37,100  Level FlightAware
04:58AM 38.4770 19.1750 107° East 494 568 37,100  Level FlightAware
04:59AM 38.4230 19.3090 117° Southeast 495 570 37,100  Level FlightAware
04:59AM 38.3980 19.3960 110° East 495 570 37,100  Level FlightAware
05:00AM 38.3730 19.4780 111° Southeast 494 568 37,100  Level FlightAware
05:01AM 38.3180 19.6630 111° Southeast 494 568 37,100  Level FlightAware
05:01AM 38.2840 19.7760 111° Southeast 493 567 37,100  Level FlightAware
05:02AM 38.2570 19.8630 112° Southeast 492 566 37,100  Level FlightAware
05:02AM 38.2310 19.9490 111° Southeast 492 566 37,100  Level FlightAware
05:03AM 38.1780 20.1220 111° Southeast 492 566 37,100  Level FlightAware
05:04AM 38.1510 20.2130 111° Southeast 492 566 37,100  Level FlightAware
05:05AM 38.1130 20.3340 112° Southeast 492 566 37,100  Level FlightAware
05:05AM 38.0830 20.4330 111° Southeast 492 566 37,100  Level FlightAware
05:06AM 38.0660 20.4910 110° East 492 566 37,100  Level FlightAware
05:07AM 38.0100 20.6650 112° Southeast 493 567 37,100  Level FlightAware
05:07AM 37.9770 20.7690 112° Southeast 493 567 37,100  Level FlightAware
05:08AM 37.9320 20.9120 112° Southeast 495 570 37,100  Level FlightAware
05:09AM 37.9010 21.0110 112° Southeast 495 570 37,100  Level FlightAware
05:09AM 37.8670 21.1190 112° Southeast 495 570 37,100  Level FlightAware
05:10AM 37.8430 21.1940 112° Southeast 495 570 37,100  Level FlightAware
05:11AM 37.8110 21.2940 112° Southeast 496 571 37,100  Level FlightAware
05:11AM 37.7690 21.4250 112° Southeast 496 571 37,100  Level FlightAware
05:12AM 37.7380 21.5220 112° Southeast 496 571 37,100  Level FlightAware
05:13AM 37.6830 21.6910 112° Southeast 497 572 37,100  Level FlightAware
05:14AM 37.6470 21.8010 112° Southeast 498 573 37,100  Level FlightAware
05:15AM 37.5900 21.9780 112° Southeast 498 573 37,100  Level FlightAware
05:15AM 37.5600 22.0670 113° Southeast 497 572 37,100  Level FlightAware
05:16AM 37.5250 22.1740 112° Southeast 497 572 37,100  Level FlightAware
05:17AM 37.4920 22.2750 112° Southeast 497 572 37,100  Level FlightAware
05:17AM 37.4510 22.3980 113° Southeast 498 573 37,100  Level FlightAware
05:18AM 37.4190 22.4940 113° Southeast 497 572 37,100  Level FlightAware
05:19AM 37.3650 22.6570 113° Southeast 498 573 37,100  Level FlightAware
05:20AM 37.3240 22.7770 113° Southeast 499 574 37,100  Level FlightAware
05:21AM 37.2850 22.8940 113° Southeast 500 575 37,100  Level FlightAware
05:21AM 37.2530 22.9880 113° Southeast 500 575 37,100  Level FlightAware
05:22AM 37.2300 23.0550 113° Southeast 502 578 37,100  Level FlightAware
05:23AM 37.1730 23.2230 113° Southeast 503 579 37,100  Level FlightAware
05:23AM 37.1370 23.3250 114° Southeast 503 579 37,100  Level FlightAware
05:24AM 37.1090 23.4080 113° Southeast 503 579 37,100  Level FlightAware
05:24AM 37.0720 23.5150 113° Southeast 504 580 37,100  Level FlightAware
05:25AM 37.0320 23.6330 113° Southeast 505 581 37,100  Level FlightAware
05:26AM 36.9790 23.7830 114° Southeast 505 581 37,100  Level FlightAware
05:27AM 36.9440 23.8850 113° Southeast 505 581 37,100  Level FlightAware
05:27AM 36.9160 23.9620 114° Southeast 505 581 37,100  Level FlightAware
05:28AM 36.8710 24.0930 113° Southeast 505 581 37,100  Level FlightAware
05:29AM 36.8080 24.2710 114° Southeast 505 581 37,100  Level FlightAware
05:30AM 36.7660 24.3910 114° Southeast 505 581 37,100  Level FlightAware
05:31AM 36.7290 24.4920 115° Southeast 504 580 37,100  Level FlightAware
05:31AM 36.6780 24.6350 114° Southeast 504 580 37,100  Level FlightAware
05:32AM 36.6430 24.7330 114° Southeast 504 580 37,100  Level FlightAware
05:33AM 36.6130 24.8180 114° Southeast 504 580 37,100  Level FlightAware
05:33AM 36.5710 24.9350 114° Southeast 505 581 37,100  Level FlightAware
05:34AM 36.5370 25.0270 115° Southeast 505 581 37,100  Level FlightAware
05:35AM 36.4980 25.1330 115° Southeast 504 580 37,100  Level FlightAware
05:35AM 36.4590 25.2410 114° Southeast 504 580 37,100  Level FlightAware
05:36AM 36.4290 25.3230 114° Southeast 505 581 37,100  Level FlightAware
05:36AM 36.3920 25.4230 115° Southeast 506 582 37,100  Level FlightAware
05:37AM 36.3440 25.5530 115° Southeast 507 583 37,100  Level FlightAware
05:38AM 36.3000 25.6740 114° Southeast 508 585 37,100  Level FlightAware
05:39AM 36.2650 25.7670 115° Southeast 509 586 37,100  Level FlightAware
05:39AM 36.2150 25.9000 115° Southeast 510 587 37,100  Level FlightAware
05:40AM 36.1660 26.0320 115° Southeast 510 587 37,100  Level FlightAware
05:41AM 36.1120 26.1750 115° Southeast 510 587 37,100  Level FlightAware
05:42AM 36.0760 26.2730 114° Southeast 509 586 37,100  Level FlightAware
05:43AM 36.0260 26.4020 116° Southeast 508 585 37,100  Level FlightAware
05:43AM 35.9910 26.4970 114° Southeast 507 583 37,100  Level FlightAware
05:44AM 35.9460 26.6150 115° Southeast 506 582 37,100  Level FlightAware
05:45AM 35.9060 26.7190 115° Southeast 506 582 37,100  Level FlightAware
05:45AM 35.8840 26.7760 115° Southeast 505 581 37,100  Level FlightAware
05:46AM 35.8380 26.8960 115° Southeast 501 577 37,100  Level FlightAware
05:46AM 35.7930 27.0130 115° Southeast 504 580 37,100  Level FlightAware
05:47AM 35.7500 27.1240 115° Southeast 504 580 37,100  Level FlightAware
05:48AM 35.7080 27.2330 115° Southeast 505 581 37,100  Level FlightAware
05:49AM 35.6660 27.3390 116° Southeast 505 581 37,100  Level FlightAware
05:49AM 35.6170 27.4630 116° Southeast 505 581 37,100  Level FlightAware
05:50AM 35.5690 27.5870 115° Southeast 507 583 37,100  Level FlightAware
05:51AM 35.5270 27.6940 116° Southeast 508 585 37,100  Level FlightAware
05:51AM 35.4900 27.7870 116° Southeast 508 585 37,100  Level FlightAware
05:52AM 35.4540 27.8760 116° Southeast 509 586 37,100  Level FlightAware
05:53AM 35.4050 28.0000 116° Southeast 510 587 37,100  Level FlightAware
05:53AM 35.3610 28.1090 116° Southeast 510 587 37,100  Level FlightAware
05:54AM 35.3150 28.2260 116° Southeast 512 589 37,100  Level FlightAware
05:55AM 35.2920 28.2830 116° Southeast 512 589 37,100  Level FlightAware
05:56AM 35.2250 28.4500 116° Southeast 512 589 37,100  Level FlightAware
05:56AM 35.1750 28.5720 117° Southeast 513 590 37,100  Level FlightAware
05:57AM 35.1340 28.6730 116° Southeast 513 590 37,100  Level FlightAware
05:58AM 35.0990 28.7600 116° Southeast 513 590 37,100  Level FlightAware
05:58AM 35.0580 28.8600 117° Southeast 513 590 37,100  Level FlightAware
05:59AM 34.9920 29.0210 117° Southeast 515 593 37,100  Level FlightAware
06:00AM 34.9170 29.2030 117° Southeast 516 594 37,100  Level FlightAware
06:01AM 34.8890 29.2700 117° Southeast 516 594 37,100  Level FlightAware
06:02AM 34.8550 29.3560 116° Southeast 516 594 37,100  Level FlightAware
06:02AM 34.7910 29.5040 118° Southeast 517 595 37,100  Level FlightAware
06:03AM 34.7530 29.5970 116° Southeast 514 592 37,100  Level FlightAware
06:04AM 34.7030 29.7160 117° Southeast 515 593 37,100  Level FlightAware
06:05AM 34.6480 29.8460 117° Southeast 516 594 37,100  Level FlightAware
06:05AM 34.6350 29.8770 117° Southeast 516 594 37,100  Level FlightAware
06:06AM 34.5920 29.9860 116° Southeast 516 594 37,100  Level FlightAware
06:06AM 34.5250 30.1090 123° Southeast 536 617 37,100  Level FlightAware
06:07AM 34.4610 30.2420 120° Southeast 519 597 37,100  Level FlightAware
06:08AM 34.4140 30.3410 120° Southeast 520 598 37,100  Level FlightAware
06:08AM 34.3730 30.4270 120° Southeast 520 598 37,100  Level FlightAware
06:09AM 34.3250 30.5270 120° Southeast 519 597 37,100  Level FlightAware
06:10AM 34.2700 30.6400 120° Southeast 518 596 37,100  Level FlightAware
06:10AM 34.2330 30.7170 120° Southeast 518 596 37,100  Level FlightAware
06:11AM 34.1590 30.8700 120° Southeast 516 594 37,100  Level FlightAware
06:12AM 34.1050 30.9810 120° Southeast 516 594 37,100  Level FlightAware
06:13AM 34.0640 31.0660 120° Southeast 517 595 37,100  Level FlightAware
06:13AM 34.0210 31.1530 121° Southeast 513 590 37,100  Level FlightAware
06:14AM 33.9770 31.2430 121° Southeast 514 592 37,100  Level FlightAware
06:14AM 33.9340 31.3300 121° Southeast 516 594 37,100  Level FlightAware
06:15AM 33.8900 31.4190 121° Southeast 518 596 37,100  Level FlightAware
06:16AM 33.8400 31.5220 120° Southeast 520 598 37,100  Level FlightAware
06:17AM 33.7830 31.6350 121° Southeast 521 600 37,100  Level FlightAware
06:17AM 33.7330 31.7350 121° Southeast 521 600 37,100  Level FlightAware
06:18AM 33.6830 31.8350 121° Southeast 521 600 37,100  Level FlightAware
06:18AM 33.6390 31.9250 120° Southeast 521 600 37,100  Level FlightAware
06:19AM 33.5950 32.0130 121° Southeast 526 605 37,100  Level FlightAware
06:20AM 33.5530 32.0980 121° Southeast 521 600 37,100  Level FlightAware
06:20AM 33.5060 32.1870 122° Southeast 526 605 37,100  Level FlightAware
06:21AM 33.4560 32.2900 120° Southeast 526 605 37,100 -120 Level FlightAware
06:21AM 33.4110 32.3770 122° Southeast 525 604 37,000 -600 Descending FlightAware
06:22AM 33.3670 32.4640 121° Southeast 522 601 36,400 -1,020 Descending FlightAware
06:23AM 33.3110 32.5720 122° Southeast 517 595 35,700 -1,020 Descending FlightAware
06:23AM 33.2660 32.6620 121° Southeast 510 587 35,100 -1,200 Descending FlightAware
06:24AM 33.2370 32.7200 121° Southeast 502 578 34,500 -2,100 Descending FlightAware
06:25AM 33.1560 32.8770 122° Southeast 495 570 31,800 -2,400 Descending FlightAware
06:26AM 33.1040 32.9790 121° Southeast 485 558 30,200 -2,340 Descending FlightAware
06:26AM 33.0520 33.0780 122° Southeast 474 545 28,600 -2,160 Descending FlightAware
06:27AM 33.0060 33.1660 122° Southeast 464 534 27,200 -2,040 Descending FlightAware
06:28AM 32.9430 33.2870 122° Southeast 446 513 25,300 -2,040 Descending FlightAware
06:29AM 32.8880 33.3960 121° Southeast 430 495 23,500 -1,980 Descending FlightAware
06:30AM 32.8430 33.4810 122° Southeast 416 479 22,200 -1,860 Descending FlightAware
06:30AM 32.8010 33.5610 122° Southeast 404 465 20,900 -1,800 Descending FlightAware
06:31AM 32.7670 33.6270 121° Southeast 395 455 19,900 -1,800 Descending FlightAware
06:32AM 32.7200 33.7150 122° Southeast 382 440 18,400 -1,800 Descending FlightAware
06:32AM 32.6780 33.7960 122° Southeast 371 427 17,100 -1,740 Descending FlightAware
06:33AM 32.6330 33.8810 122° Southeast 360 414 15,700 -1,620 Descending FlightAware
06:34AM 32.5980 33.9480 122° Southeast 359 413 14,700 -1,680 Descending FlightAware
06:35AM 32.5570 34.0260 122° Southeast 364 419 13,400 -1,680 Descending FlightAware
06:35AM 32.5270 34.0810 123° Southeast 354 407 12,500 -1,620 Descending FlightAware
06:36AM 32.4870 34.1530 123° Southeast 344 396 11,300 -1,440 Descending FlightAware
06:37AM 32.4430 34.2110 132° Southeast 331 381 10,400 -1,080 Descending FlightAware
06:37AM 32.4220 34.2360 135° Southeast 316 364 10,200 -720 Descending FlightAware
06:38AM 32.3810 34.2830 136° Southeast 293 337 9,700 -1,080 Descending FlightAware
06:39AM 32.3360 34.3360 135° Southeast 289 333 8,700 -1,140 Descending FlightAware
06:39AM 32.3070 34.3700 135° Southeast 287 330 8,200 -900 Descending FlightAware
06:40AM 32.2740 34.4080 136° Southeast 284 327 7,700 -900 Descending FlightAware
06:40AM 32.2420 34.4460 135° Southeast 279 321 7,200 -1,020 Descending FlightAware
06:41AM 32.2080 34.5020 126° Southeast 274 315 6,400 -780 Descending FlightAware
06:42AM 32.1850 34.5480 121° Southeast 274 315 6,200 -1,020 Descending FlightAware
06:42AM 32.1570 34.6020 121° Southeast 259 298 5,100 -960 Descending FlightAware
06:43AM 32.1330 34.6460 123° Southeast 264 304 5,000 -120 Descending FlightAware
06:43AM 32.1190 34.6700 125° Southeast 263 303 5,000  Level FlightAware
06:44AM 32.0940 34.7150 123° Southeast 265 305 5,000  Level FlightAware
06:45AM 32.0690 34.7610 123° Southeast 237 273 5,000 -300 Level FlightAware
06:45AM 32.0310 34.8080 134° Southeast 216 249 4,600 -300 Descending FlightAware
06:46AM 31.9990 34.8450 136° Southeast 196 226 4,500 -600 Descending FlightAware
06:47AM 31.9820 34.8650 135° Southeast 197 227 3,900 -1,560 Descending FlightAware
06:47AM 31.9730 34.8910 112° Southeast 193 222 3,100 -1,320 Descending FlightAware
06:48AM 31.9810 34.9300 76° East 188 216 2,400 -1,020 Descending FlightAware
06:48AM 31.9920 34.9580 65° Northeast 186 214 1,900 -1,080 Descending FlightAware
06:49AM 32.0240 34.9500 348° North 167 192 1,100 -780 Descending FlightAware
06:50AM 32.0290 34.9200 281° West 163 188 900 -360 Descending FlightAware